sensor_id;sensor_type;location;lat;lon;timestamp;pressure;altitude;pressure_sealevel;temperature;humidity
44044;BME280;29709;52.396;16.796;2023-04-04T00:00:31;102992.87;;;0.92;59.63
44044;BME280;29709;52.396;16.796;2023-04-04T00:03:44;102990.22;;;0.91;59.71
44044;BME280;29709;52.396;16.796;2023-04-04T00:07:03;102991.91;;;0.95;59.53
44044;BME280;29709;52.396;16.796;2023-04-04T00:10:16;102990.08;;;0.95;59.65
44044;BME280;29709;52.396;16.796;2023-04-04T00:13:29;102986.63;;;0.90;60.49
44044;BME280;29709;52.396;16.796;2023-04-04T00:16:42;102984.74;;;0.92;59.90
44044;BME280;29709;52.396;16.796;2023-04-04T00:19:55;102986.50;;;0.95;59.99
44044;BME280;29709;52.396;16.796;2023-04-04T00:23:10;102988.45;;;0.90;60.23
44044;BME280;29709;52.396;16.796;2023-04-04T00:26:23;102990.28;;;0.89;60.24
44044;BME280;29709;52.396;16.796;2023-04-04T00:29:37;102981.47;;;0.82;60.24
44044;BME280;29709;52.396;16.796;2023-04-04T00:32:50;102977.80;;;0.85;61.04
44044;BME280;29709;52.396;16.796;2023-04-04T00:36:04;102976.05;;;0.82;60.58
44044;BME280;29709;52.396;16.796;2023-04-04T00:39:17;102970.70;;;0.81;60.63
44044;BME280;29709;52.396;16.796;2023-04-04T00:42:32;102972.46;;;0.82;60.76
44044;BME280;29709;52.396;16.796;2023-04-04T00:45:47;102975.16;;;0.83;61.06
44044;BME280;29709;52.396;16.796;2023-04-04T00:49:00;102968.69;;;0.88;60.32
44044;BME280;29709;52.396;16.796;2023-04-04T00:52:14;102973.27;;;0.85;60.90
44044;BME280;29709;52.396;16.796;2023-04-04T00:55:27;102968.73;;;0.86;60.90
44044;BME280;29709;52.396;16.796;2023-04-04T00:58:41;102971.45;;;0.86;60.60
44044;BME280;29709;52.396;16.796;2023-04-04T01:01:55;102974.29;;;0.81;60.80
44044;BME280;29709;52.396;16.796;2023-04-04T01:05:09;102968.87;;;0.81;61.20
44044;BME280;29709;52.396;16.796;2023-04-04T01:08:25;102975.16;;;0.83;61.27
44044;BME280;29709;52.396;16.796;2023-04-04T01:11:40;102969.51;;;0.90;61.10
44044;BME280;29709;52.396;16.796;2023-04-04T01:14:53;102972.27;;;0.88;61.17
44044;BME280;29709;52.396;16.796;2023-04-04T01:18:07;102972.44;;;0.83;61.50
44044;BME280;29709;52.396;16.796;2023-04-04T01:21:22;102962.37;;;0.87;61.65
44044;BME280;29709;52.396;16.796;2023-04-04T01:24:37;102962.52;;;0.82;61.68
44044;BME280;29709;52.396;16.796;2023-04-04T01:27:51;102959.79;;;0.84;61.70
44044;BME280;29709;52.396;16.796;2023-04-04T01:31:06;102956.03;;;0.88;61.63
44044;BME280;29709;52.396;16.796;2023-04-04T01:34:30;102946.85;;;0.92;61.51
44044;BME280;29709;52.396;16.796;2023-04-04T01:37:53;102943.19;;;0.93;61.52
44044;BME280;29709;52.396;16.796;2023-04-04T01:41:10;102936.63;;;1.00;61.45
44044;BME280;29709;52.396;16.796;2023-04-04T01:44:25;102934.92;;;0.98;61.69
44044;BME280;29709;52.396;16.796;2023-04-04T01:47:42;102938.46;;;1.00;61.46
44044;BME280;29709;52.396;16.796;2023-04-04T01:50:55;102931.21;;;1.00;61.63
44044;BME280;29709;52.396;16.796;2023-04-04T01:54:09;102929.19;;;1.07;61.24
44044;BME280;29709;52.396;16.796;2023-04-04T01:57:22;102925.41;;;1.11;60.89
44044;BME280;29709;52.396;16.796;2023-04-04T02:00:35;102926.30;;;1.11;61.22
44044;BME280;29709;52.396;16.796;2023-04-04T02:03:49;102924.33;;;1.17;60.72
44044;BME280;29709;52.396;16.796;2023-04-04T02:07:02;102915.47;;;1.11;60.73
44044;BME280;29709;52.396;16.796;2023-04-04T02:10:16;102919.88;;;1.14;60.64
44044;BME280;29709;52.396;16.796;2023-04-04T02:13:30;102911.00;;;1.10;60.46
44044;BME280;29709;52.396;16.796;2023-04-04T02:16:43;102914.52;;;1.12;60.35
44044;BME280;29709;52.396;16.796;2023-04-04T02:19:57;102904.58;;;1.13;60.33
44044;BME280;29709;52.396;16.796;2023-04-04T02:23:10;102911.76;;;1.14;60.20
44044;BME280;29709;52.396;16.796;2023-04-04T02:26:24;102912.48;;;1.19;59.94
44044;BME280;29709;52.396;16.796;2023-04-04T02:29:37;102911.27;;;1.28;59.94
44044;BME280;29709;52.396;16.796;2023-04-04T02:32:50;102914.73;;;1.31;59.39
44044;BME280;29709;52.396;16.796;2023-04-04T02:36:04;102905.73;;;1.31;59.27
44044;BME280;29709;52.396;16.796;2023-04-04T02:39:18;102909.98;;;1.38;59.09
44044;BME280;29709;52.396;16.796;2023-04-04T02:42:31;102894.77;;;1.34;58.45
44044;BME280;29709;52.396;16.796;2023-04-04T02:45:46;102900.43;;;1.28;58.26
44044;BME280;29709;52.396;16.796;2023-04-04T02:49:00;102892.37;;;1.26;57.92
44044;BME280;29709;52.396;16.796;2023-04-04T02:52:13;102892.45;;;1.23;57.55
44044;BME280;29709;52.396;16.796;2023-04-04T02:55:26;102893.19;;;1.28;57.64
44044;BME280;29709;52.396;16.796;2023-04-04T02:58:40;102889.36;;;1.34;56.48
44044;BME280;29709;52.396;16.796;2023-04-04T03:01:53;102887.37;;;1.39;56.95
44044;BME280;29709;52.396;16.796;2023-04-04T03:05:07;102890.77;;;1.44;56.58
44044;BME280;29709;52.396;16.796;2023-04-04T03:08:20;102888.91;;;1.46;56.46
44044;BME280;29709;52.396;16.796;2023-04-04T03:11:34;102887.71;;;1.53;56.17
44044;BME280;29709;52.396;16.796;2023-04-04T03:14:47;102886.61;;;1.59;56.21
44044;BME280;29709;52.396;16.796;2023-04-04T03:18:01;102876.38;;;1.65;55.96
44044;BME280;29709;52.396;16.796;2023-04-04T03:21:15;102875.21;;;1.72;56.03
44044;BME280;29709;52.396;16.796;2023-04-04T03:24:29;102880.34;;;1.80;55.80
44044;BME280;29709;52.396;16.796;2023-04-04T03:27:42;102880.26;;;1.82;56.08
44044;BME280;29709;52.396;16.796;2023-04-04T03:30:56;102874.78;;;1.83;56.20
44044;BME280;29709;52.396;16.796;2023-04-04T03:34:09;102870.18;;;1.85;56.26
44044;BME280;29709;52.396;16.796;2023-04-04T03:37:23;102869.94;;;1.91;56.14
44044;BME280;29709;52.396;16.796;2023-04-04T03:40:36;102869.19;;;1.88;55.95
44044;BME280;29709;52.396;16.796;2023-04-04T03:43:49;102860.57;;;1.77;55.90
44044;BME280;29709;52.396;16.796;2023-04-04T03:47:03;102858.19;;;1.69;56.70
44044;BME280;29709;52.396;16.796;2023-04-04T03:50:16;102870.27;;;1.60;56.59
44044;BME280;29709;52.396;16.796;2023-04-04T03:53:29;102866.23;;;1.49;57.19
44044;BME280;29709;52.396;16.796;2023-04-04T03:56:43;102867.17;;;1.48;58.27
44044;BME280;29709;52.396;16.796;2023-04-04T03:59:56;102862.62;;;1.48;58.32
44044;BME280;29709;52.396;16.796;2023-04-04T04:03:10;102864.80;;;1.38;59.01
44044;BME280;29709;52.396;16.796;2023-04-04T04:06:23;102860.22;;;1.40;59.37
44044;BME280;29709;52.396;16.796;2023-04-04T04:09:36;102860.40;;;1.36;59.75
44044;BME280;29709;52.396;16.796;2023-04-04T04:12:50;102862.26;;;1.34;60.27
44044;BME280;29709;52.396;16.796;2023-04-04T04:16:05;102855.34;;;1.27;61.08
44044;BME280;29709;52.396;16.796;2023-04-04T04:19:18;102860.76;;;1.27;61.45
44044;BME280;29709;52.396;16.796;2023-04-04T04:22:32;102849.24;;;1.20;62.33
44044;BME280;29709;52.396;16.796;2023-04-04T04:25:46;102857.16;;;1.26;62.72
44044;BME280;29709;52.396;16.796;2023-04-04T04:28:59;102866.56;;;1.39;62.05
44044;BME280;29709;52.396;16.796;2023-04-04T04:32:16;102859.98;;;1.47;62.01
44044;BME280;29709;52.396;16.796;2023-04-04T04:35:29;102851.13;;;1.41;62.71
44044;BME280;29709;52.396;16.796;2023-04-04T04:38:43;102855.60;;;1.42;62.41
44044;BME280;29709;52.396;16.796;2023-04-04T04:41:56;102861.38;;;1.33;64.10
44044;BME280;29709;52.396;16.796;2023-04-04T04:45:09;102862.38;;;1.31;64.68
44044;BME280;29709;52.396;16.796;2023-04-04T04:48:23;102864.43;;;1.24;64.71
44044;BME280;29709;52.396;16.796;2023-04-04T04:51:36;102871.58;;;1.27;65.45
44044;BME280;29709;52.396;16.796;2023-04-04T04:54:50;102874.35;;;1.25;66.33
44044;BME280;29709;52.396;16.796;2023-04-04T04:58:04;102875.23;;;1.26;65.62
44044;BME280;29709;52.396;16.796;2023-04-04T05:01:18;102868.15;;;1.22;65.84
44044;BME280;29709;52.396;16.796;2023-04-04T05:04:31;102872.55;;;1.24;66.80
44044;BME280;29709;52.396;16.796;2023-04-04T05:07:44;102871.64;;;1.25;66.46
44044;BME280;29709;52.396;16.796;2023-04-04T05:10:59;102865.30;;;1.25;67.16
44044;BME280;29709;52.396;16.796;2023-04-04T05:14:12;102879.81;;;1.24;68.21
44044;BME280;29709;52.396;16.796;2023-04-04T05:17:25;102875.80;;;1.34;67.55
44044;BME280;29709;52.396;16.796;2023-04-04T05:20:39;102879.37;;;1.36;67.58
44044;BME280;29709;52.396;16.796;2023-04-04T05:23:52;102875.45;;;1.43;67.52
44044;BME280;29709;52.396;16.796;2023-04-04T05:27:05;102876.11;;;1.50;67.40
44044;BME280;29709;52.396;16.796;2023-04-04T05:30:18;102876.05;;;1.51;67.45
44044;BME280;29709;52.396;16.796;2023-04-04T05:33:31;102880.45;;;1.54;67.49
44044;BME280;29709;52.396;16.796;2023-04-04T05:36:45;102879.16;;;1.64;67.46
44044;BME280;29709;52.396;16.796;2023-04-04T05:39:59;102877.98;;;1.71;67.44
44044;BME280;29709;52.396;16.796;2023-04-04T05:43:13;102880.23;;;1.60;68.22
44044;BME280;29709;52.396;16.796;2023-04-04T05:46:26;102876.22;;;1.70;67.10
44044;BME280;29709;52.396;16.796;2023-04-04T05:49:42;102874.20;;;1.75;67.27
44044;BME280;29709;52.396;16.796;2023-04-04T05:52:56;102883.14;;;1.77;67.54
44044;BME280;29709;52.396;16.796;2023-04-04T05:56:10;102879.25;;;1.84;67.14
44044;BME280;29709;52.396;16.796;2023-04-04T05:59:24;102876.30;;;1.90;66.93
44044;BME280;29709;52.396;16.796;2023-04-04T06:02:37;102875.00;;;2.00;66.65
44044;BME280;29709;52.396;16.796;2023-04-04T06:05:51;102879.27;;;2.06;66.28
44044;BME280;29709;52.396;16.796;2023-04-04T06:09:05;102876.55;;;2.06;66.20
44044;BME280;29709;52.396;16.796;2023-04-04T06:12:18;102876.24;;;2.14;66.09
44044;BME280;29709;52.396;16.796;2023-04-04T06:15:32;102885.34;;;2.13;66.13
44044;BME280;29709;52.396;16.796;2023-04-04T06:18:45;102886.15;;;2.15;65.79
44044;BME280;29709;52.396;16.796;2023-04-04T06:21:58;102884.25;;;2.17;65.78
44044;BME280;29709;52.396;16.796;2023-04-04T06:25:11;102883.38;;;2.16;65.63
44044;BME280;29709;52.396;16.796;2023-04-04T06:28:26;102867.53;;;2.27;65.52
44044;BME280;29709;52.396;16.796;2023-04-04T06:31:39;102867.09;;;2.58;64.98
44044;BME280;29709;52.396;16.796;2023-04-04T06:34:52;102865.50;;;2.75;63.94
44044;BME280;29709;52.396;16.796;2023-04-04T06:38:05;102860.24;;;2.90;63.22
44044;BME280;29709;52.396;16.796;2023-04-04T06:41:19;102865.84;;;2.87;63.36
44044;BME280;29709;52.396;16.796;2023-04-04T06:44:32;102864.69;;;2.93;63.11
44044;BME280;29709;52.396;16.796;2023-04-04T06:47:45;102863.10;;;3.08;63.41
44044;BME280;29709;52.396;16.796;2023-04-04T06:51:06;102867.58;;;3.09;61.96
44044;BME280;29709;52.396;16.796;2023-04-04T06:54:20;102862.29;;;3.06;60.83
44044;BME280;29709;52.396;16.796;2023-04-04T06:57:34;102856.13;;;3.02;61.10
44044;BME280;29709;52.396;16.796;2023-04-04T07:00:48;102862.87;;;3.12;60.44
44044;BME280;29709;52.396;16.796;2023-04-04T07:04:01;102861.00;;;3.14;59.36
44044;BME280;29709;52.396;16.796;2023-04-04T07:07:14;102860.84;;;3.17;59.06
44044;BME280;29709;52.396;16.796;2023-04-04T07:10:28;102855.14;;;3.24;59.23
44044;BME280;29709;52.396;16.796;2023-04-04T07:13:41;102863.72;;;3.33;58.91
44044;BME280;29709;52.396;16.796;2023-04-04T07:16:54;102862.72;;;3.36;58.86
44044;BME280;29709;52.396;16.796;2023-04-04T07:20:08;102853.88;;;3.31;59.75
44044;BME280;29709;52.396;16.796;2023-04-04T07:23:22;102858.70;;;3.44;59.22
44044;BME280;29709;52.396;16.796;2023-04-04T07:26:35;102855.51;;;3.54;57.84
44044;BME280;29709;52.396;16.796;2023-04-04T07:29:48;102856.40;;;3.73;58.28
44044;BME280;29709;52.396;16.796;2023-04-04T07:33:02;102850.09;;;3.72;58.12
44044;BME280;29709;52.396;16.796;2023-04-04T07:38:46;102850.61;;;3.81;58.54
44044;BME280;29709;52.396;16.796;2023-04-04T07:42:00;102843.99;;;3.86;58.34
44044;BME280;29709;52.396;16.796;2023-04-04T07:45:14;102844.88;;;3.87;56.52
44044;BME280;29709;52.396;16.796;2023-04-04T07:48:27;102842.95;;;3.70;53.91
44044;BME280;29709;52.396;16.796;2023-04-04T07:51:40;102840.76;;;3.59;53.49
44044;BME280;29709;52.396;16.796;2023-04-04T07:54:54;102841.19;;;3.50;54.29
44044;BME280;29709;52.396;16.796;2023-04-04T07:58:07;102842.65;;;3.38;54.16
44044;BME280;29709;52.396;16.796;2023-04-04T08:01:20;102847.56;;;3.30;52.71
44044;BME280;29709;52.396;16.796;2023-04-04T08:04:33;102850.78;;;3.19;52.74
44044;BME280;29709;52.396;16.796;2023-04-04T08:07:47;102836.96;;;3.05;54.20
44044;BME280;29709;52.396;16.796;2023-04-04T08:11:00;102846.05;;;3.04;52.67
44044;BME280;29709;52.396;16.796;2023-04-04T08:14:13;102833.77;;;2.96;51.16
44044;BME280;29709;52.396;16.796;2023-04-04T08:17:27;102840.82;;;3.00;51.12
44044;BME280;29709;52.396;16.796;2023-04-04T08:20:40;102845.59;;;2.95;51.48
44044;BME280;29709;52.396;16.796;2023-04-04T08:23:54;102837.04;;;3.04;52.00
44044;BME280;29709;52.396;16.796;2023-04-04T08:27:07;102838.00;;;3.22;53.03
44044;BME280;29709;52.396;16.796;2023-04-04T08:30:20;102837.38;;;3.35;52.47
44044;BME280;29709;52.396;16.796;2023-04-04T08:33:33;102848.83;;;3.42;51.13
44044;BME280;29709;52.396;16.796;2023-04-04T08:36:46;102837.24;;;3.57;51.33
44044;BME280;29709;52.396;16.796;2023-04-04T08:40:00;102823.74;;;3.92;50.90
44044;BME280;29709;52.396;16.796;2023-04-04T08:43:14;102821.00;;;4.11;49.06
44044;BME280;29709;52.396;16.796;2023-04-04T08:46:31;102823.88;;;4.08;49.16
44044;BME280;29709;52.396;16.796;2023-04-04T08:49:46;102822.92;;;4.09;48.19
44044;BME280;29709;52.396;16.796;2023-04-04T08:53:01;102828.28;;;4.10;47.03
44044;BME280;29709;52.396;16.796;2023-04-04T08:56:17;102818.90;;;3.98;45.90
44044;BME280;29709;52.396;16.796;2023-04-04T08:59:31;102807.66;;;3.87;46.74
44044;BME280;29709;52.396;16.796;2023-04-04T09:06:10;102803.08;;;4.07;46.63
44044;BME280;29709;52.396;16.796;2023-04-04T09:09:25;102805.04;;;4.03;46.17
44044;BME280;29709;52.396;16.796;2023-04-04T09:12:42;102808.73;;;4.02;46.88
44044;BME280;29709;52.396;16.796;2023-04-04T09:15:56;102803.21;;;4.03;46.75
44044;BME280;29709;52.396;16.796;2023-04-04T09:19:10;102804.49;;;3.96;46.84
44044;BME280;29709;52.396;16.796;2023-04-04T09:22:26;102802.49;;;4.00;46.55
44044;BME280;29709;52.396;16.796;2023-04-04T09:25:44;102800.18;;;4.10;46.59
44044;BME280;29709;52.396;16.796;2023-04-04T09:29:00;102798.35;;;4.10;46.09
44044;BME280;29709;52.396;16.796;2023-04-04T09:32:14;102795.92;;;4.04;46.73
44044;BME280;29709;52.396;16.796;2023-04-04T09:35:36;102798.51;;;4.07;46.83
44044;BME280;29709;52.396;16.796;2023-04-04T09:38:52;102796.89;;;4.03;46.88
44044;BME280;29709;52.396;16.796;2023-04-04T09:42:06;102802.91;;;4.10;47.53
44044;BME280;29709;52.396;16.796;2023-04-04T09:45:23;102806.13;;;4.18;47.10
44044;BME280;29709;52.396;16.796;2023-04-04T09:48:37;102803.41;;;4.18;46.72
44044;BME280;29709;52.396;16.796;2023-04-04T09:51:53;102813.24;;;4.20;47.14
44044;BME280;29709;52.396;16.796;2023-04-04T09:55:07;102806.55;;;4.27;46.96
44044;BME280;29709;52.396;16.796;2023-04-04T09:58:28;102805.95;;;4.21;47.37
44044;BME280;29709;52.396;16.796;2023-04-04T10:01:46;102804.84;;;4.25;46.77
44044;BME280;29709;52.396;16.796;2023-04-04T10:05:07;102817.56;;;4.24;46.45
44044;BME280;29709;52.396;16.796;2023-04-04T10:08:22;102807.60;;;4.06;47.00
44044;BME280;29709;52.396;16.796;2023-04-04T10:11:36;102819.23;;;4.10;47.16
44044;BME280;29709;52.396;16.796;2023-04-04T10:14:57;102810.11;;;4.11;47.51
44044;BME280;29709;52.396;16.796;2023-04-04T10:18:11;102811.62;;;4.16;47.64
44044;BME280;29709;52.396;16.796;2023-04-04T10:21:25;102812.28;;;4.21;47.56
44044;BME280;29709;52.396;16.796;2023-04-04T10:24:39;102805.63;;;4.27;47.18
44044;BME280;29709;52.396;16.796;2023-04-04T10:27:52;102809.09;;;4.30;47.47
44044;BME280;29709;52.396;16.796;2023-04-04T10:34:42;102811.40;;;4.21;45.76
44044;BME280;29709;52.396;16.796;2023-04-04T10:38:01;102801.08;;;4.10;47.22
44044;BME280;29709;52.396;16.796;2023-04-04T10:41:18;102795.30;;;4.16;46.31
44044;BME280;29709;52.396;16.796;2023-04-04T10:44:42;102788.02;;;4.17;46.81
44044;BME280;29709;52.396;16.796;2023-04-04T10:47:52;102797.74;;;4.40;46.56
44044;BME280;29709;52.396;16.796;2023-04-04T10:51:06;102786.68;;;4.60;45.77
44044;BME280;29709;52.396;16.796;2023-04-04T10:54:21;102796.61;;;4.61;43.55
44044;BME280;29709;52.396;16.796;2023-04-04T10:57:40;102777.77;;;4.56;43.83
44044;BME280;29709;52.396;16.796;2023-04-04T11:00:55;102779.47;;;4.59;43.98
44044;BME280;29709;52.396;16.796;2023-04-04T11:04:19;102781.18;;;4.95;45.00
44044;BME280;29709;52.396;16.796;2023-04-04T11:07:34;102774.30;;;5.36;44.05
44044;BME280;29709;52.396;16.796;2023-04-04T11:10:52;102780.66;;;5.53;43.38
44044;BME280;29709;52.396;16.796;2023-04-04T11:14:09;102764.00;;;5.41;42.54
44044;BME280;29709;52.396;16.796;2023-04-04T11:20:47;102766.54;;;5.13;43.82
44044;BME280;29709;52.396;16.796;2023-04-04T11:24:12;102761.18;;;5.11;44.20
44044;BME280;29709;52.396;16.796;2023-04-04T11:27:27;102753.80;;;5.29;44.36
44044;BME280;29709;52.396;16.796;2023-04-04T11:30:43;102749.24;;;5.45;44.23
44044;BME280;29709;52.396;16.796;2023-04-04T11:34:08;102743.77;;;5.61;43.84
44044;BME280;29709;52.396;16.796;2023-04-04T11:37:21;102740.33;;;6.05;43.91
44044;BME280;29709;52.396;16.796;2023-04-04T11:40:38;102727.98;;;6.58;42.22
44044;BME280;29709;52.396;16.796;2023-04-04T11:43:53;102718.54;;;6.78;42.31
44044;BME280;29709;52.396;16.796;2023-04-04T11:47:10;102722.83;;;6.82;40.08
44044;BME280;29709;52.396;16.796;2023-04-04T11:50:24;102727.63;;;6.34;40.56
44044;BME280;29709;52.396;16.796;2023-04-04T11:53:41;102719.73;;;5.99;41.20
44044;BME280;29709;52.396;16.796;2023-04-04T11:56:54;102720.70;;;5.98;42.06
44044;BME280;29709;52.396;16.796;2023-04-04T12:00:34;102717.01;;;5.99;42.32
44044;BME280;29709;52.396;16.796;2023-04-04T12:03:49;102709.42;;;6.04;42.28
44044;BME280;29709;52.396;16.796;2023-04-04T12:07:06;102701.84;;;6.24;41.88
44044;BME280;29709;52.396;16.796;2023-04-04T12:10:21;102700.35;;;6.62;42.47
44044;BME280;29709;52.396;16.796;2023-04-04T12:13:41;102694.77;;;7.21;42.29
44044;BME280;29709;52.396;16.796;2023-04-04T12:17:01;102692.34;;;7.58;42.05
44044;BME280;29709;52.396;16.796;2023-04-04T12:20:15;102699.05;;;7.66;40.35
44044;BME280;29709;52.396;16.796;2023-04-04T12:23:33;102696.97;;;7.43;39.99
44044;BME280;29709;52.396;16.796;2023-04-04T12:26:50;102692.23;;;7.18;40.64
44044;BME280;29709;52.396;16.796;2023-04-04T12:30:05;102681.81;;;6.96;40.54
44044;BME280;29709;52.396;16.796;2023-04-04T12:33:27;102676.26;;;6.83;40.38
44044;BME280;29709;52.396;16.796;2023-04-04T12:36:40;102678.71;;;6.59;40.02
44044;BME280;29709;52.396;16.796;2023-04-04T12:39:54;102680.63;;;6.43;41.17
44044;BME280;29709;52.396;16.796;2023-04-04T12:43:08;102663.87;;;6.49;41.13
44044;BME280;29709;52.396;16.796;2023-04-04T12:46:25;102656.75;;;6.61;40.88
44044;BME280;29709;52.396;16.796;2023-04-04T12:49:43;102652.54;;;6.55;41.26
44044;BME280;29709;52.396;16.796;2023-04-04T12:52:59;102651.08;;;6.64;41.47
44044;BME280;29709;52.396;16.796;2023-04-04T12:56:12;102649.93;;;6.68;41.72
44044;BME280;29709;52.396;16.796;2023-04-04T12:59:32;102642.98;;;6.62;39.65
44044;BME280;29709;52.396;16.796;2023-04-04T13:02:48;102650.00;;;6.52;40.02
44044;BME280;29709;52.396;16.796;2023-04-04T13:06:25;102637.54;;;6.48;40.89
44044;BME280;29709;52.396;16.796;2023-04-04T13:09:29;102630.88;;;6.52;41.51
44044;BME280;29709;52.396;16.796;2023-04-04T13:19:37;102607.42;;;7.32;39.94
44044;BME280;29709;52.396;16.796;2023-04-04T13:22:50;102609.33;;;7.44;37.24
44044;BME280;29709;52.396;16.796;2023-04-04T13:26:05;102607.60;;;7.29;37.98
44044;BME280;29709;52.396;16.796;2023-04-04T13:29:20;102607.46;;;7.18;37.10
44044;BME280;29709;52.396;16.796;2023-04-04T13:32:33;102602.08;;;6.89;38.25
44044;BME280;29709;52.396;16.796;2023-04-04T13:35:48;102598.33;;;7.05;38.59
44044;BME280;29709;52.396;16.796;2023-04-04T13:39:02;102593.75;;;7.32;38.46
44044;BME280;29709;52.396;16.796;2023-04-04T13:42:16;102589.44;;;7.55;36.26
44044;BME280;29709;52.396;16.796;2023-04-04T13:45:33;102597.25;;;7.61;36.68
44044;BME280;29709;52.396;16.796;2023-04-04T13:48:46;102590.54;;;7.52;35.92
44044;BME280;29709;52.396;16.796;2023-04-04T13:51:59;102593.02;;;7.43;36.43
44044;BME280;29709;52.396;16.796;2023-04-04T13:55:13;102589.05;;;7.34;36.38
44044;BME280;29709;52.396;16.796;2023-04-04T13:58:26;102587.24;;;7.20;36.13
44044;BME280;29709;52.396;16.796;2023-04-04T14:01:39;102589.73;;;6.97;37.09
44044;BME280;29709;52.396;16.796;2023-04-04T14:04:53;102577.37;;;6.91;37.54
44044;BME280;29709;52.396;16.796;2023-04-04T14:08:06;102575.02;;;6.85;37.28
44044;BME280;29709;52.396;16.796;2023-04-04T14:11:20;102572.89;;;6.76;37.79
44044;BME280;29709;52.396;16.796;2023-04-04T14:14:33;102566.45;;;6.77;37.60
44044;BME280;29709;52.396;16.796;2023-04-04T14:17:46;102569.38;;;6.74;37.31
44044;BME280;29709;52.396;16.796;2023-04-04T14:21:00;102566.66;;;6.74;37.43
44044;BME280;29709;52.396;16.796;2023-04-04T14:24:14;102560.98;;;6.77;37.37
44044;BME280;29709;52.396;16.796;2023-04-04T14:27:27;102556.10;;;6.82;38.06
44044;BME280;29709;52.396;16.796;2023-04-04T14:30:40;102560.38;;;6.86;36.60
44044;BME280;29709;52.396;16.796;2023-04-04T14:33:54;102559.22;;;6.90;37.04
44044;BME280;29709;52.396;16.796;2023-04-04T14:37:07;102554.09;;;6.98;37.44
44044;BME280;29709;52.396;16.796;2023-04-04T14:40:20;102549.77;;;7.08;37.00
44044;BME280;29709;52.396;16.796;2023-04-04T14:43:36;102549.98;;;7.05;36.95
44044;BME280;29709;52.396;16.796;2023-04-04T14:46:50;102547.46;;;7.02;36.63
44044;BME280;29709;52.396;16.796;2023-04-04T14:50:05;102543.84;;;7.02;37.11
44044;BME280;29709;52.396;16.796;2023-04-04T14:53:18;102539.91;;;7.06;36.39
44044;BME280;29709;52.396;16.796;2023-04-04T14:56:33;102539.73;;;7.09;36.71
44044;BME280;29709;52.396;16.796;2023-04-04T14:59:46;102547.46;;;7.02;36.89
44044;BME280;29709;52.396;16.796;2023-04-04T15:02:59;102546.59;;;7.02;37.21
44044;BME280;29709;52.396;16.796;2023-04-04T15:06:13;102532.45;;;6.95;37.60
44044;BME280;29709;52.396;16.796;2023-04-04T15:09:27;102538.67;;;6.97;36.86
44044;BME280;29709;52.396;16.796;2023-04-04T15:12:40;102534.89;;;7.00;37.22
44044;BME280;29709;52.396;16.796;2023-04-04T15:15:53;102535.22;;;7.08;37.01
44044;BME280;29709;52.396;16.796;2023-04-04T15:19:07;102534.09;;;7.24;37.87
44044;BME280;29709;52.396;16.796;2023-04-04T15:22:22;102526.69;;;7.39;37.37
44044;BME280;29709;52.396;16.796;2023-04-04T15:25:36;102528.26;;;7.56;37.03
44044;BME280;29709;52.396;16.796;2023-04-04T15:28:49;102516.23;;;7.59;36.78
44044;BME280;29709;52.396;16.796;2023-04-04T15:32:02;102526.73;;;7.52;37.09
44044;BME280;29709;52.396;16.796;2023-04-04T15:35:19;102519.35;;;7.40;36.35
44044;BME280;29709;52.396;16.796;2023-04-04T15:38:32;102515.47;;;7.17;35.62
44044;BME280;29709;52.396;16.796;2023-04-04T15:41:45;102515.89;;;7.11;36.44
44044;BME280;29709;52.396;16.796;2023-04-04T15:44:58;102518.53;;;7.12;36.42
44044;BME280;29709;52.396;16.796;2023-04-04T15:48:12;102512.18;;;7.12;36.66
44044;BME280;29709;52.396;16.796;2023-04-04T15:51:25;102506.49;;;7.15;36.35
44044;BME280;29709;52.396;16.796;2023-04-04T15:54:40;102501.02;;;7.15;36.42
44044;BME280;29709;52.396;16.796;2023-04-04T15:57:53;102498.00;;;7.19;36.71
44044;BME280;29709;52.396;16.796;2023-04-04T16:01:06;102501.49;;;7.21;36.73
44044;BME280;29709;52.396;16.796;2023-04-04T16:04:20;102500.87;;;7.31;37.53
44044;BME280;29709;52.396;16.796;2023-04-04T16:07:33;102504.47;;;7.31;37.86
44044;BME280;29709;52.396;16.796;2023-04-04T16:10:47;102499.01;;;7.31;37.41
44044;BME280;29709;52.396;16.796;2023-04-04T16:14:01;102505.90;;;7.37;37.72
44044;BME280;29709;52.396;16.796;2023-04-04T16:17:14;102503.38;;;7.34;37.83
44044;BME280;29709;52.396;16.796;2023-04-04T16:20:27;102494.94;;;7.24;37.84
44044;BME280;29709;52.396;16.796;2023-04-04T16:23:40;102494.29;;;7.20;38.82
44044;BME280;29709;52.396;16.796;2023-04-04T16:26:56;102495.05;;;7.22;38.72
44044;BME280;29709;52.396;16.796;2023-04-04T16:30:10;102491.73;;;7.17;39.10
44044;BME280;29709;52.396;16.796;2023-04-04T16:33:23;102490.33;;;7.24;39.25
44044;BME280;29709;52.396;16.796;2023-04-04T16:36:36;102500.07;;;7.29;39.65
44044;BME280;29709;52.396;16.796;2023-04-04T16:39:50;102496.46;;;7.28;39.61
44044;BME280;29709;52.396;16.796;2023-04-04T16:43:03;102486.61;;;7.26;39.31
44044;BME280;29709;52.396;16.796;2023-04-04T16:46:17;102491.09;;;7.27;39.24
44044;BME280;29709;52.396;16.796;2023-04-04T16:49:30;102492.53;;;7.19;39.59
44044;BME280;29709;52.396;16.796;2023-04-04T16:52:44;102497.20;;;7.17;40.24
44044;BME280;29709;52.396;16.796;2023-04-04T16:55:58;102495.55;;;7.15;40.66
44044;BME280;29709;52.396;16.796;2023-04-04T16:59:12;102494.68;;;7.14;40.48
44044;BME280;29709;52.396;16.796;2023-04-04T17:02:25;102490.67;;;7.20;40.13
44044;BME280;29709;52.396;16.796;2023-04-04T17:05:40;102484.33;;;7.19;40.60
44044;BME280;29709;52.396;16.796;2023-04-04T17:08:53;102480.91;;;7.16;40.72
44044;BME280;29709;52.396;16.796;2023-04-04T17:12:06;102486.59;;;7.13;41.12
44044;BME280;29709;52.396;16.796;2023-04-04T17:15:20;102485.13;;;7.07;40.59